Time;durP1;ratioP1;P1;durP2;ratioP2;P2;SDS_P1;SDS_P2;PMS_P1;PMS_P2;Temp;Humidity;BMP_temperature;BMP_pressure;BME280_temperature;BME280_humidity;BME280_pressure;Samples;Min_cycle;Max_cycle;Signal;HPM_P1;HPM_P2
2022/04/09 00:00:22;;;;;;;95.10;45.50;;;;;;;24.04;76.94;97778.75;5056191;28;20133;-68
2022/04/09 00:03:11;;;;;;;83.75;43.30;;;;;;;24.06;77.07;97786.50;5054695;28;20049;-68
2022/04/09 00:06:00;;;;;;;106.40;45.88;;;;;;;23.96;73.96;97786.59;5041549;28;20041;-70
2022/04/09 00:08:49;;;;;;;90.13;43.83;;;;;;;23.87;75.23;97792.75;5051092;28;20116;-68
2022/04/09 00:11:31;;;;;;;88.75;44.20;;;;;;;23.87;78.18;97797.19;5051691;28;20544;-68
2022/04/09 00:14:20;;;;;;;85.15;44.90;;;;;;;23.85;78.43;97799.16;5048449;28;20715;-67
2022/04/09 00:17:01;;;;;;;100.53;42.83;;;;;;;23.95;77.21;97792.81;5048227;28;20044;-68
2022/04/09 00:19:56;;;;;;;83.10;43.47;;;;;;;23.86;79.43;97800.81;5052849;28;20045;-68
2022/04/09 00:22:32;;;;;;;82.65;43.20;;;;;;;23.90;79.44;97802.97;5054094;28;20047;-68
2022/04/09 00:25:24;;;;;;;97.25;45.55;;;;;;;23.90;80.46;97804.78;5055172;28;20048;-68
2022/04/09 00:28:06;;;;;;;79.63;42.58;;;;;;;23.77;79.89;97820.97;5048390;28;20041;-68
2022/04/09 00:30:55;;;;;;;83.32;41.67;;;;;;;23.72;80.14;97817.94;5045328;28;20076;-67
2022/04/09 00:33:44;;;;;;;91.95;42.50;;;;;;;23.61;75.94;97820.78;5028187;28;20037;-67
2022/04/09 00:36:33;;;;;;;90.63;43.72;;;;;;;23.51;78.04;97826.09;5045317;28;20037;-69
2022/04/09 00:39:14;;;;;;;88.22;45.47;;;;;;;23.52;79.84;97826.94;5024646;28;20065;-68
2022/04/09 00:42:03;;;;;;;94.93;44.08;;;;;;;23.60;80.61;97833.13;5043617;28;20472;-68
2022/04/09 00:44:45;;;;;;;96.15;44.42;;;;;;;23.69;81.00;97841.09;5052490;28;20044;-67
2022/04/09 00:47:42;;;;;;;92.72;45.03;;;;;;;23.71;81.59;97845.19;5009377;28;20076;-68
2022/04/09 00:50:17;;;;;;;86.93;43.35;;;;;;;23.70;82.87;97840.94;5007752;28;20057;-68
2022/04/09 00:53:08;;;;;;;87.95;42.88;;;;;;;23.64;80.56;97852.03;5025833;28;20053;-69
2022/04/09 00:56:13;;;;;;;85.50;41.80;;;;;;;23.58;81.04;97858.72;5026617;28;20368;-67
2022/04/09 00:59:06;;;;;;;79.05;40.45;;;;;;;23.60;80.77;97855.94;5045273;28;20045;-67
2022/04/09 01:01:48;;;;;;;97.65;43.95;;;;;;;23.72;82.25;97860.00;5037850;28;20053;-68
2022/04/09 01:04:42;;;;;;;89.78;41.80;;;;;;;23.75;81.51;97866.78;5044116;28;20069;-68
2022/04/09 01:07:25;;;;;;;88.78;43.70;;;;;;;23.72;81.42;97870.53;5043904;28;20056;-68
2022/04/09 01:10:20;;;;;;;91.03;43.53;;;;;;;23.89;82.73;97871.53;5027784;28;20239;-68
2022/04/09 01:12:55;;;;;;;89.32;43.28;;;;;;;23.96;79.67;97877.84;5044228;28;20095;-68
2022/04/09 01:15:44;;;;;;;84.07;42.30;;;;;;;23.91;81.79;97875.69;5043333;28;20056;-68
2022/04/09 01:18:26;;;;;;;88.78;44.33;;;;;;;23.93;80.98;97879.00;5026024;28;20055;-68
2022/04/09 01:21:17;;;;;;;90.25;45.00;;;;;;;23.90;77.38;97881.91;5029125;28;20055;-67
2022/04/09 01:24:04;;;;;;;100.95;45.38;;;;;;;23.90;77.67;97884.53;5027716;28;20041;-68
2022/04/09 01:26:58;;;;;;;87.13;44.25;;;;;;;24.13;84.52;97884.94;5026973;28;20059;-68
2022/04/09 01:29:43;;;;;;;92.75;45.08;;;;;;;24.33;83.65;97891.75;5027398;28;20049;-68
2022/04/09 01:32:32;;;;;;;85.88;45.00;;;;;;;24.39;84.57;97895.56;5043620;28;20053;-68
2022/04/09 01:35:21;;;;;;;88.05;44.92;;;;;;;24.48;86.04;97899.91;5043584;28;20056;-68
2022/04/09 01:38:04;;;;;;;97.90;44.75;;;;;;;24.44;83.74;97903.81;5046145;28;20399;-68
2022/04/09 01:40:54;;;;;;;101.85;46.22;;;;;;;24.42;80.37;97901.34;5025911;28;20049;-69
2022/04/09 01:43:41;;;;;;;86.10;42.72;;;;;;;24.45;79.74;97909.91;5035487;28;20045;-68
2022/04/09 01:46:41;;;;;;;81.20;44.38;;;;;;;24.55;80.65;97906.22;5027381;28;20045;-68
2022/04/09 01:49:29;;;;;;;81.05;43.40;;;;;;;24.63;79.92;97916.84;5044336;28;20489;-68
2022/04/09 01:52:18;;;;;;;80.72;42.40;;;;;;;24.97;86.08;97914.31;5044611;28;20148;-67
2022/04/09 01:55:00;;;;;;;86.20;43.53;;;;;;;25.17;84.76;97921.00;5045480;28;20057;-68
2022/04/09 01:57:51;;;;;;;90.18;45.10;;;;;;;25.33;94.25;97920.25;5029590;28;20045;-69
2022/04/09 02:00:38;;;;;;;87.57;45.45;;;;;;;25.42;89.27;97923.78;5028977;28;20118;-68
2022/04/09 02:03:27;;;;;;;95.53;45.60;;;;;;;25.51;87.52;97921.03;5032237;28;20368;-68
2022/04/09 02:06:09;;;;;;;94.30;44.47;;;;;;;25.59;83.11;97927.34;5027908;28;20060;-68
2022/04/09 02:08:58;;;;;;;92.03;45.17;;;;;;;25.69;78.54;97930.69;5026035;28;20041;-68
2022/04/09 02:11:41;;;;;;;93.75;44.65;;;;;;;25.82;75.63;97938.97;5029883;28;20479;-67
2022/04/09 02:14:30;;;;;;;99.85;47.20;;;;;;;26.18;80.35;97943.00;5030413;28;20060;-67
2022/04/09 02:17:19;;;;;;;117.38;55.25;;;;;;;26.48;68.20;97946.06;5030386;28;20688;-68
2022/04/09 02:20:10;;;;;;;123.15;54.70;;;;;;;26.78;71.19;97948.06;5055275;28;20044;-67
2022/04/09 02:22:52;;;;;;;127.78;54.72;;;;;;;27.01;74.13;97954.34;5053700;28;20621;-68
2022/04/09 02:25:41;;;;;;;109.32;52.97;;;;;;;27.25;74.42;97961.41;5056586;28;20045;-68
2022/04/09 02:28:23;;;;;;;113.90;50.50;;;;;;;27.45;69.99;97972.44;5051354;28;20044;-68
2022/04/09 02:31:12;;;;;;;110.85;49.92;;;;;;;27.61;77.54;97972.44;5033652;28;20052;-68
2022/04/09 02:33:55;;;;;;;96.47;49.03;;;;;;;27.63;71.51;97980.19;5047301;28;20052;-67
2022/04/09 02:36:44;;;;;;;108.55;48.25;;;;;;;27.77;71.67;97996.19;5055640;28;20113;-67
2022/04/09 02:39:26;;;;;;;101.07;49.15;;;;;;;27.98;64.18;98000.06;5054965;28;20548;-68
2022/04/09 02:42:15;;;;;;;106.38;46.42;;;;;;;28.19;69.16;98024.16;5039498;28;20135;-68
2022/04/09 02:44:57;;;;;;;93.05;44.25;;;;;;;28.48;65.53;98028.84;5035824;28;20045;-68
2022/04/09 02:47:53;;;;;;;117.45;47.45;;;;;;;28.45;65.15;98026.53;5035861;28;20048;-68
2022/04/09 02:50:32;;;;;;;94.82;39.33;;;;;;;28.29;51.68;98024.78;5037266;28;20064;-68
2022/04/09 02:53:23;;;;;;;92.30;41.15;;;;;;;28.55;59.27;98020.00;5037045;28;20077;-68
2022/04/09 02:56:06;;;;;;;98.65;42.97;;;;;;;28.51;64.28;98028.47;5036322;28;20055;-68
2022/04/09 02:58:56;;;;;;;79.30;36.88;;;;;;;28.46;50.45;98044.09;5050350;28;20045;-68
2022/04/09 03:01:38;;;;;;;;;;;;;;;28.58;49.50;98041.84;5057972;28;20276;-68
2022/04/09 03:04:28;;;;;;;71.25;35.15;;;;;;;28.89;59.21;98037.38;5031581;28;19935;-68
2022/04/09 03:07:09;;;;;;;75.90;36.78;;;;;;;28.98;52.71;98038.09;5055734;28;20174;-68
2022/04/09 03:10:04;;;;;;;65.32;32.28;;;;;;;29.14;56.42;98052.06;5054916;28;20110;-68
2022/04/09 03:12:49;;;;;;;72.40;35.15;;;;;;;29.19;62.35;98054.19;5055589;28;20087;-68
2022/04/09 03:15:37;;;;;;;76.90;36.05;;;;;;;29.07;61.57;98071.53;5052912;28;20045;-68
2022/04/09 03:18:27;;;;;;;72.97;34.63;;;;;;;29.20;61.68;98077.91;5031806;28;20056;-68
2022/04/09 03:21:10;;;;;;;66.35;35.45;;;;;;;29.18;63.37;98087.88;5022879;28;20041;-69
2022/04/09 03:23:59;;;;;;;75.13;34.72;;;;;;;29.30;63.71;98089.09;5055360;28;20098;-68
2022/04/09 03:26:41;;;;;;;83.57;35.30;;;;;;;29.40;58.19;98103.97;5035389;28;20124;-68
2022/04/09 03:29:31;;;;;;;59.17;31.77;;;;;;;29.46;50.46;98100.59;5033461;28;20056;-66
2022/04/09 03:32:14;;;;;;;72.28;33.85;;;;;;;29.59;58.14;98100.81;5047256;28;20106;-69
2022/04/09 03:35:03;;;;;;;63.30;31.50;;;;;;;29.61;53.40;98109.44;5029474;28;20057;-69
2022/04/09 03:37:46;;;;;;;75.20;33.13;;;;;;;29.54;56.22;98111.13;5054728;28;20130;-68
2022/04/09 03:40:55;;;;;;;83.65;35.03;;;;;;;29.67;58.53;98101.56;5051117;28;20044;-69
2022/04/09 03:43:54;;;;;;;73.93;33.75;;;;;;;29.80;54.28;98108.06;5054491;28;20489;-68
2022/04/09 03:46:55;;;;;;;80.15;35.65;;;;;;;29.95;60.45;98099.13;5060478;28;20047;-68
2022/04/09 03:49:34;;;;;;;81.22;35.30;;;;;;;30.01;45.09;98108.22;5052674;28;20041;-68
2022/04/09 03:52:30;;;;;;;70.60;35.75;;;;;;;30.35;53.36;98105.81;5073709;28;20052;-68
2022/04/09 03:55:07;;;;;;;83.43;36.38;;;;;;;30.32;48.45;98100.06;5055146;28;20125;-68
2022/04/09 03:58:03;;;;;;;70.03;35.63;;;;;;;30.38;45.28;98105.44;5043019;28;20055;-68
2022/04/09 04:00:38;;;;;;;80.00;34.80;;;;;;;30.58;45.34;98111.03;5044709;28;20369;-68
2022/04/09 04:03:29;;;;;;;85.55;36.83;;;;;;;30.82;41.71;98101.88;5043131;28;20056;-68
2022/04/09 04:06:12;;;;;;;85.10;35.13;;;;;;;30.97;42.19;98107.19;5041829;28;20041;-68
2022/04/09 04:09:14;;;;;;;74.13;34.08;;;;;;;31.34;41.28;98103.44;5062507;28;20051;-68
2022/04/09 04:11:54;;;;;;;71.22;34.80;;;;;;;31.49;48.05;98110.34;5047354;28;20060;-68
2022/04/09 04:14:50;;;;;;;61.83;31.40;;;;;;;31.49;40.27;98109.50;5060240;28;20646;-68
2022/04/09 04:17:26;;;;;;;61.30;32.67;;;;;;;31.45;46.01;98106.41;5044040;28;20052;-69
2022/04/09 04:20:23;;;;;;;;;;;;;;;31.46;45.71;98109.88;5052626;28;20040;-68
2022/04/09 04:22:59;;;;;;;66.28;30.27;;;;;;;31.83;52.85;98116.78;5051257;28;19920;-69
2022/04/09 04:25:54;;;;;;;62.88;31.45;;;;;;;31.88;39.30;98122.34;5069983;28;20197;-67
2022/04/09 04:28:30;;;;;;;64.18;31.10;;;;;;;32.50;48.23;98119.63;5043816;28;20049;-68
2022/04/09 04:31:19;;;;;;;66.80;30.60;;;;;;;32.92;49.11;98123.91;5054500;28;20136;-68
2022/04/09 04:34:01;;;;;;;64.97;30.45;;;;;;;33.24;40.21;98134.88;5052395;28;20052;-69
2022/04/09 04:36:53;;;;;;;69.25;33.35;;;;;;;33.20;38.80;98136.28;5046738;28;20044;-68
2022/04/09 04:39:34;;;;;;;61.47;33.25;;;;;;;33.55;37.00;98139.63;5031886;28;20128;-68
2022/04/09 04:42:29;;;;;;;74.40;31.60;;;;;;;33.71;45.47;98133.84;5051117;28;20059;-69
2022/04/09 04:45:06;;;;;;;70.22;31.95;;;;;;;33.91;38.75;98136.56;5045124;28;20551;-69
2022/04/09 04:48:05;;;;;;;69.55;32.30;;;;;;;34.29;42.97;98131.34;5046549;28;20045;-68
2022/04/09 04:50:40;;;;;;;74.40;32.90;;;;;;;34.30;39.89;98131.16;5043986;28;20408;-69
2022/04/09 04:53:31;;;;;;;60.05;31.33;;;;;;;34.53;42.59;98131.47;5044661;28;20040;-68
2022/04/09 04:56:22;;;;;;;72.68;33.03;;;;;;;34.96;39.59;98122.03;5043835;28;20063;-68
2022/04/09 04:59:11;;;;;;;73.25;32.05;;;;;;;34.76;37.16;98133.66;5061949;28;20106;-67
2022/04/09 05:01:53;;;;;;;75.22;32.50;;;;;;;34.83;38.65;98129.09;5045318;28;20787;-68
2022/04/09 05:04:43;;;;;;;61.60;31.33;;;;;;;35.19;39.16;98123.13;5057735;28;20056;-67
2022/04/09 05:07:24;;;;;;;63.10;30.35;;;;;;;35.19;38.04;98130.34;5029179;28;20045;-68
2022/04/09 05:10:22;;;;;;;73.95;28.60;;;;;;;35.37;37.08;98125.06;5045081;28;20529;-67
2022/04/09 05:13:01;;;;;;;58.65;30.38;;;;;;;35.55;41.99;98116.25;5042780;28;20036;-66
2022/04/09 05:15:50;;;;;;;75.30;32.23;;;;;;;35.70;36.89;98114.06;5050373;28;20101;-68
2022/04/09 05:18:44;;;;;;;71.32;33.20;;;;;;;35.90;38.39;98114.75;5054411;28;20064;-68
2022/04/09 05:21:26;;;;;;;74.33;32.93;;;;;;;35.92;36.08;98109.16;5036631;28;20110;-67
2022/04/09 05:24:15;;;;;;;60.20;29.08;;;;;;;35.76;32.69;98113.22;5061636;28;20320;-67
2022/04/09 05:26:58;;;;;;;55.15;29.30;;;;;;;36.03;35.97;98111.09;5044074;28;20079;-67
2022/04/09 05:29:47;;;;;;;59.92;30.25;;;;;;;36.16;40.12;98110.94;5067900;28;20056;-68
2022/04/09 05:32:30;;;;;;;72.20;34.67;;;;;;;35.73;38.04;98108.31;5043960;28;20123;-67
2022/04/09 05:35:20;;;;;;;66.20;30.65;;;;;;;35.97;37.95;98117.34;5063222;28;20052;-68
2022/04/09 05:38:03;;;;;;;52.67;27.00;;;;;;;36.22;34.24;98111.97;5051978;28;20037;-69
2022/04/09 05:40:54;;;;;;;59.08;27.02;;;;;;;36.69;33.55;98113.88;4693081;28;10000659;-69
2022/04/09 05:43:36;;;;;;;64.97;23.70;;;;;;;36.21;32.03;98107.63;5061580;28;20541;-68
2022/04/09 05:46:32;;;;;;;60.50;27.30;;;;;;;35.75;32.95;98100.88;5043673;28;20472;-70
2022/04/09 05:49:13;;;;;;;57.75;25.95;;;;;;;36.17;36.90;98092.97;5031336;28;20041;-71
2022/04/09 05:52:02;;;;;;;55.88;24.27;;;;;;;36.56;43.20;98097.91;5033272;28;20049;-69
2022/04/09 05:54:45;;;;;;;60.35;25.08;;;;;;;36.61;39.48;98095.38;5028789;28;20052;-69
2022/04/09 05:57:42;;;;;;;57.92;25.25;;;;;;;36.74;34.26;98097.06;5032814;28;20045;-67
2022/04/09 06:00:18;;;;;;;56.05;25.30;;;;;;;36.86;31.95;98086.41;4988583;28;20060;-67
2022/04/09 06:03:23;;;;;;;54.38;22.60;;;;;;;36.96;31.59;98087.47;5022865;28;20057;-68
2022/04/09 06:06:04;;;;;;;;;;;;;;;37.06;29.83;98081.53;5032230;28;20055;-67
2022/04/09 06:09:03;;;;;;;46.28;21.42;;;;;;;36.95;28.62;98082.34;5047766;28;19924;-68
2022/04/09 06:12:02;;;;;;;48.70;20.02;;;;;;;36.90;30.35;98076.81;5035851;28;20131;-68
2022/04/09 06:15:03;;;;;;;42.58;20.33;;;;;;;37.06;40.87;98063.53;5022626;28;20421;-69
2022/04/09 06:17:54;;;;;;;37.05;20.33;;;;;;;37.01;40.99;98066.13;5032168;28;20047;-69
2022/04/09 06:20:49;;;;;;;37.17;19.13;;;;;;;36.89;30.21;98069.81;5031929;28;20048;-67
2022/04/09 06:23:24;;;;;;;44.65;20.60;;;;;;;37.01;30.99;98067.97;5032284;28;20102;-69
2022/04/09 06:26:13;;;;;;;41.53;18.90;;;;;;;37.01;29.83;98068.81;5027069;28;20488;-68
2022/04/09 06:28:54;;;;;;;43.45;17.98;;;;;;;36.86;32.30;98062.22;5044875;28;20051;-69
2022/04/09 06:31:47;;;;;;;45.15;16.88;;;;;;;37.11;30.21;98058.31;5027811;28;20045;-68
2022/04/09 06:34:29;;;;;;;38.83;16.45;;;;;;;37.01;35.08;98052.69;5027173;28;20059;-67
2022/04/09 06:37:25;;;;;;;39.38;15.48;;;;;;;36.70;30.14;98053.78;5026129;28;20456;-67
2022/04/09 06:40:07;;;;;;;42.28;16.73;;;;;;;36.64;26.78;98046.56;5045177;28;20056;-68
2022/04/09 06:42:58;;;;;;;43.65;15.35;;;;;;;36.66;31.39;98040.97;5017785;28;20044;-67
2022/04/09 06:46:09;;;;;;;41.10;14.75;;;;;;;36.64;28.27;98040.41;5025584;28;20045;-67
2022/04/09 06:49:20;;;;;;;31.48;13.25;;;;;;;36.65;24.93;98042.03;5025556;28;20060;-67
2022/04/09 06:52:37;;;;;;;32.25;14.30;;;;;;;37.01;34.59;98027.69;5021656;28;20065;-68
2022/04/09 06:55:35;;;;;;;36.83;14.43;;;;;;;37.08;34.93;98015.78;5020371;28;20048;-67
2022/04/09 06:58:17;;;;;;;37.57;15.07;;;;;;;37.07;30.59;98024.88;5027810;28;20163;-67
2022/04/09 07:01:06;;;;;;;42.25;15.57;;;;;;;36.82;28.22;98020.75;5027512;28;20345;-67
2022/04/09 07:03:56;;;;;;;32.55;13.95;;;;;;;36.90;27.85;98015.03;5019971;28;20056;-68
2022/04/09 07:06:46;;;;;;;28.92;14.55;;;;;;;36.89;25.78;98011.53;5025095;28;20049;-68
2022/04/09 07:09:28;;;;;;;30.15;12.93;;;;;;;36.92;23.79;98015.63;5039883;28;20072;-68
2022/04/09 07:12:17;;;;;;;37.85;12.95;;;;;;;37.07;27.29;98002.56;5038229;28;20144;-67
2022/04/09 07:14:59;;;;;;;27.20;12.88;;;;;;;37.12;30.66;98002.69;5040562;28;20139;-67
2022/04/09 07:17:55;;;;;;;32.05;15.50;;;;;;;37.13;26.66;97998.97;5043433;28;20063;-66
2022/04/09 07:20:33;;;;;;;38.42;14.25;;;;;;;37.15;26.95;97992.34;5038102;28;20049;-68
2022/04/09 07:23:22;;;;;;;30.65;13.18;;;;;;;37.04;25.24;97989.59;5010089;28;20064;-69
2022/04/09 07:26:03;;;;;;;26.27;12.57;;;;;;;37.26;27.70;97981.81;5051208;28;20052;-68
2022/04/09 07:28:53;;;;;;;34.83;11.93;;;;;;;37.15;25.65;97978.06;5042987;28;20060;-66
2022/04/09 07:31:42;;;;;;;29.75;11.60;;;;;;;37.23;29.33;97972.34;4341261;28;10000660;-66
2022/04/09 07:34:24;;;;;;;23.80;10.32;;;;;;;37.29;23.45;97979.47;5050028;28;20083;-66
2022/04/09 07:37:13;;;;;;;34.42;12.68;;;;;;;37.22;24.66;97965.34;5038824;28;20574;-66
2022/04/09 07:39:56;;;;;;;21.75;10.27;;;;;;;37.27;25.11;97962.78;5049648;28;20594;-66
2022/04/09 07:42:45;;;;;;;26.20;10.80;;;;;;;37.37;26.35;97957.63;5043114;28;20045;-67
2022/04/09 07:45:28;;;;;;;26.58;10.98;;;;;;;37.40;31.19;97948.28;5037525;28;20485;-67
2022/04/09 07:48:22;;;;;;;25.38;11.38;;;;;;;37.26;24.50;97957.63;5044088;28;20129;-67
2022/04/09 07:51:11;;;;;;;24.15;10.07;;;;;;;37.19;22.62;97951.56;5047603;28;20048;-65
2022/04/09 07:53:53;;;;;;;26.35;9.93;;;;;;;37.37;29.50;97949.56;5038293;28;20037;-66
2022/04/09 07:56:42;;;;;;;24.40;9.93;;;;;;;37.29;28.76;97946.41;5037212;28;20080;-66
2022/04/09 07:59:24;;;;;;;29.63;9.98;;;;;;;37.25;27.18;97935.31;5046775;28;20056;-67
2022/04/09 08:02:13;;;;;;;32.25;9.73;;;;;;;37.36;23.04;97942.53;5045088;28;20059;-67
2022/04/09 08:04:55;;;;;;;31.98;10.48;;;;;;;37.31;24.94;97929.00;5028034;28;20132;-68
2022/04/09 08:07:45;;;;;;;26.25;9.18;;;;;;;37.28;25.64;97928.66;5052537;28;20110;-67
2022/04/09 08:10:27;;;;;;;20.83;9.15;;;;;;;37.25;29.03;97918.38;5047758;28;20057;-67
2022/04/09 08:13:16;;;;;;;31.13;9.98;;;;;;;37.03;27.78;97915.44;5045320;28;20476;-67
2022/04/09 08:15:58;;;;;;;24.88;8.65;;;;;;;36.98;24.39;97918.00;5047433;28;20048;-67
2022/04/09 08:18:47;;;;;;;25.17;9.43;;;;;;;36.97;23.93;97914.47;5036014;28;20049;-67
2022/04/09 08:21:29;;;;;;;23.80;10.20;;;;;;;36.96;26.14;97904.78;5048695;28;20544;-68
2022/04/09 08:24:24;;;;;;;18.70;9.85;;;;;;;36.94;29.18;97895.34;5044564;28;20076;-68
2022/04/09 08:26:59;;;;;;;25.27;9.82;;;;;;;36.82;27.56;97895.31;5042763;28;20048;-68
2022/04/09 08:29:48;;;;;;;24.90;9.65;;;;;;;36.70;28.57;97891.84;5034539;28;20506;-68
2022/04/09 08:32:30;;;;;;;19.38;9.50;;;;;;;36.64;26.65;97882.78;5043806;28;20058;-68
2022/04/09 08:35:26;;;;;;;16.48;8.90;;;;;;;36.59;25.72;97874.63;5025829;28;20052;-68
2022/04/09 08:38:03;;;;;;;20.70;8.60;;;;;;;36.55;29.14;97870.78;5035238;28;20696;-67
2022/04/09 08:40:52;;;;;;;40.70;9.15;;;;;;;36.48;28.75;97867.34;5043471;28;20143;-67
2022/04/09 08:43:36;;;;;;;25.38;10.02;;;;;;;36.46;29.52;97861.44;5039914;28;20110;-69
2022/04/09 08:46:36;;;;;;;20.88;8.60;;;;;;;36.40;28.85;97856.97;5044853;28;20636;-68
2022/04/09 08:49:35;;;;;;;22.90;9.02;;;;;;;36.38;30.99;97854.53;4691434;28;10001117;-70
2022/04/09 08:52:11;;;;;;;23.40;9.05;;;;;;;36.35;27.28;97852.28;5045104;28;20040;-67
2022/04/09 08:55:00;;;;;;;19.55;9.20;;;;;;;36.39;29.69;97840.06;5037658;28;20048;-71
2022/04/09 08:57:51;;;;;;;26.23;9.10;;;;;;;36.32;30.19;97841.22;5051950;28;20056;-67
2022/04/09 09:00:33;;;;;;;23.42;9.23;;;;;;;36.27;27.18;97838.41;5038413;28;20044;-67
2022/04/09 09:03:23;;;;;;;20.08;8.02;;;;;;;36.27;25.30;97833.03;5059058;28;20449;-68
2022/04/09 09:06:31;;;;;;;26.88;9.68;;;;;;;36.32;26.66;97833.19;5024196;28;20055;-65
2022/04/09 09:09:36;;;;;;;24.23;9.25;;;;;;;36.45;25.87;97832.13;5049121;28;20409;-65
2022/04/09 09:12:31;;;;;;;29.38;9.10;;;;;;;36.59;27.20;97822.78;5043001;28;20771;-65
2022/04/09 09:15:13;;;;;;;18.38;9.23;;;;;;;36.56;27.94;97816.00;4698614;28;10000451;-67
2022/04/09 09:18:02;;;;;;;18.17;9.07;;;;;;;36.40;29.40;97814.84;5049073;28;20532;-70
2022/04/09 09:20:54;;;;;;;24.35;9.73;;;;;;;36.41;25.46;97810.28;5057417;28;20049;-66
2022/04/09 09:23:49;;;;;;;23.40;9.40;;;;;;;36.49;25.45;97801.06;5051455;28;20064;-65
2022/04/09 09:26:24;;;;;;;26.00;9.13;;;;;;;36.39;27.14;97797.13;5054102;28;20059;-67
2022/04/09 09:29:35;;;;;;;28.23;9.23;;;;;;;36.29;29.30;97790.69;5050757;28;20052;-68
2022/04/09 09:32:13;;;;;;;22.40;9.48;;;;;;;36.20;30.84;97786.72;5052399;28;20057;-69
2022/04/09 09:35:09;;;;;;;25.92;9.35;;;;;;;36.17;29.92;97782.59;5061292;28;20055;-65
2022/04/09 09:37:44;;;;;;;23.83;8.25;;;;;;;36.29;27.35;97780.78;5053149;28;20048;-69
2022/04/09 09:40:33;;;;;;;31.83;9.30;;;;;;;36.23;27.44;97780.88;5050334;28;20045;-71
2022/04/09 09:43:26;;;;;;;28.73;8.80;;;;;;;36.27;27.88;97777.50;5055164;28;20063;-69
2022/04/09 09:46:08;;;;;;;35.17;10.35;;;;;;;36.14;27.52;97771.50;5054089;28;20052;-67
2022/04/09 09:48:57;;;;;;;24.25;10.57;;;;;;;36.12;28.98;97768.25;5037296;28;20099;-68
2022/04/09 09:51:39;;;;;;;27.88;10.10;;;;;;;36.05;27.47;97768.34;5034767;28;20118;-67
2022/04/09 09:54:28;;;;;;;18.08;9.48;;;;;;;36.07;28.84;97762.75;5032087;28;20053;-67
2022/04/09 09:57:20;;;;;;;23.63;8.77;;;;;;;36.09;28.45;97760.63;5034186;28;20152;-68
2022/04/09 10:00:18;;;;;;;27.80;9.02;;;;;;;36.10;28.73;97760.41;5033197;28;20052;-68
2022/04/09 10:03:00;;;;;;;30.77;10.68;;;;;;;35.98;30.13;97751.53;5035007;28;20064;-67
2022/04/09 10:05:50;;;;;;;36.60;9.43;;;;;;;35.91;28.23;97750.84;5036652;28;20132;-68
2022/04/09 10:08:32;;;;;;;26.42;9.63;;;;;;;35.83;29.06;97745.81;5032377;28;20051;-67
2022/04/09 10:11:25;;;;;;;18.42;8.43;;;;;;;35.71;30.90;97737.72;5035696;28;20522;-69
2022/04/09 10:14:08;;;;;;;24.65;9.02;;;;;;;35.60;29.22;97739.28;5017062;28;20057;-69
2022/04/09 10:16:58;;;;;;;26.15;10.35;;;;;;;35.62;31.19;97728.34;5039991;28;20766;-69
2022/04/09 10:19:59;;;;;;;27.83;9.88;;;;;;;35.57;28.67;97728.22;5033192;28;20048;-66
2022/04/09 10:22:52;;;;;;;32.65;10.23;;;;;;;35.50;31.18;97727.50;5042760;28;20048;-69
2022/04/09 10:25:43;;;;;;;32.30;10.73;;;;;;;35.46;30.85;97723.63;5023070;28;20587;-67
2022/04/09 10:28:43;;;;;;;18.98;10.55;;;;;;;35.40;28.66;97725.38;5032024;28;20115;-68
2022/04/09 10:31:34;;;;;;;34.90;9.80;;;;;;;35.37;32.02;97723.13;5040536;28;20549;-69
2022/04/09 10:34:17;;;;;;;23.65;10.15;;;;;;;35.25;33.50;97720.41;5035926;28;20052;-66
2022/04/09 10:37:06;;;;;;;20.98;11.10;;;;;;;35.25;31.71;97717.75;5037863;28;20578;-66
2022/04/09 10:39:50;;;;;;;34.08;10.82;;;;;;;35.21;33.13;97719.19;5034055;28;20055;-65
2022/04/09 10:42:50;;;;;;;29.65;11.13;;;;;;;35.20;31.72;97722.91;5037646;28;20053;-66
2022/04/09 10:45:35;;;;;;;37.47;10.98;;;;;;;35.30;27.50;97725.09;5040034;28;20048;-67
2022/04/09 10:48:41;;;;;;;28.70;9.07;;;;;;;35.45;29.10;97725.47;5042427;28;20045;-67
2022/04/09 10:51:16;;;;;;;15.88;8.32;;;;;;;35.57;26.57;97718.31;5033813;28;20037;-64
2022/04/09 10:54:05;;;;;;;19.70;8.88;;;;;;;35.58;26.74;97724.50;5024310;28;20041;-65
2022/04/09 10:56:50;;;;;;;20.77;8.27;;;;;;;35.54;27.64;97720.63;4998799;28;20126;-65
2022/04/09 10:59:44;;;;;;;16.65;7.38;;;;;;;35.53;27.04;97721.66;5037586;28;20041;-66
2022/04/09 11:02:19;;;;;;;14.27;7.32;;;;;;;35.53;27.14;97721.66;5020863;28;20155;-68
2022/04/09 11:05:27;;;;;;;16.10;7.30;;;;;;;35.43;28.17;97710.69;5030893;28;20195;-67
2022/04/09 11:08:07;;;;;;;18.60;7.57;;;;;;;35.29;30.02;97705.50;5039894;28;20464;-64
2022/04/09 11:10:56;;;;;;;25.88;8.18;;;;;;;35.19;29.63;97702.56;5031215;28;20056;-64
2022/04/09 11:13:38;;;;;;;20.77;8.82;;;;;;;35.04;31.28;97702.09;5043061;28;20047;-65
2022/04/09 11:16:39;;;;;;;20.10;7.72;;;;;;;35.00;30.41;97700.94;5031910;28;20072;-62
2022/04/09 11:19:14;;;;;;;20.83;7.80;;;;;;;34.97;28.74;97704.06;5023629;28;20098;-65
2022/04/09 11:22:04;;;;;;;24.17;8.70;;;;;;;34.92;28.96;97694.03;5037107;28;20048;-66
2022/04/09 11:24:46;;;;;;;21.95;8.25;;;;;;;34.87;30.17;97701.94;5042247;28;21538;-66
2022/04/09 11:27:42;;;;;;;26.63;8.52;;;;;;;34.66;32.18;97698.84;5033532;28;20056;-66
2022/04/09 11:30:18;;;;;;;25.08;7.85;;;;;;;34.50;31.37;97695.72;5039622;28;20067;-67
2022/04/09 11:33:15;;;;;;;23.33;8.57;;;;;;;34.31;33.86;97691.41;5037428;28;20056;-67
2022/04/09 11:35:57;;;;;;;21.35;7.80;;;;;;;34.29;30.98;97693.47;5035645;28;20506;-66
2022/04/09 11:38:55;;;;;;;23.63;8.55;;;;;;;34.17;34.33;97689.84;5036144;28;20068;-65
2022/04/09 11:41:30;;;;;;;35.40;9.52;;;;;;;34.12;33.10;97697.72;5040731;28;20558;-64
2022/04/09 11:44:29;;;;;;;33.28;10.43;;;;;;;34.24;29.96;97697.88;5027261;28;20056;-67
2022/04/09 11:47:30;;;;;;;27.48;9.27;;;;;;;34.16;31.63;97696.25;5043775;28;20044;-67
2022/04/09 11:50:19;;;;;;;26.05;9.60;;;;;;;34.15;32.30;97694.63;5052664;28;20048;-67
2022/04/09 11:53:02;;;;;;;34.33;9.75;;;;;;;34.11;31.81;97688.88;5058225;28;20040;-67
2022/04/09 11:56:03;;;;;;;31.63;10.63;;;;;;;34.10;31.08;97689.09;4686660;28;10000002;-67
2022/04/09 11:58:45;;;;;;;24.75;9.02;;;;;;;34.01;31.66;97685.88;4705961;28;9999948;-68
2022/04/09 12:01:33;;;;;;;30.05;8.52;;;;;;;33.93;34.94;97680.00;5055525;28;20794;-68
2022/04/09 12:04:23;;;;;;;19.27;9.23;;;;;;;33.79;34.23;97685.47;5052923;28;20048;-66
2022/04/09 12:07:12;;;;;;;27.67;8.78;;;;;;;33.69;38.06;97687.75;4934530;28;10001086;-66
2022/04/09 12:10:01;;;;;;;23.10;8.27;;;;;;;33.53;34.33;97690.97;5039483;28;20353;-66
2022/04/09 12:12:43;;;;;;;23.33;9.93;;;;;;;33.50;38.51;97688.75;5051048;28;20063;-65
2022/04/09 12:15:37;;;;;;;25.17;10.10;;;;;;;33.38;37.11;97691.25;5052779;28;20041;-67
2022/04/09 12:18:31;;;;;;;19.88;8.93;;;;;;;33.24;37.84;97694.22;5056533;28;20044;-67
2022/04/09 12:21:38;;;;;;;22.75;9.45;;;;;;;33.06;41.32;97686.91;5050051;28;20155;-68
2022/04/09 12:24:20;;;;;;;26.95;10.27;;;;;;;32.92;40.23;97690.66;5055882;28;20206;-66
2022/04/09 12:27:09;;;;;;;28.75;9.60;;;;;;;32.79;40.72;97685.41;5056322;28;20167;-66
2022/04/09 12:29:58;;;;;;;23.95;9.68;;;;;;;32.68;41.94;97684.16;5051863;28;20164;-67
2022/04/09 12:32:47;;;;;;;28.50;10.00;;;;;;;32.55;39.99;97689.53;5054698;28;20059;-67
2022/04/09 12:35:30;;;;;;;38.85;10.60;;;;;;;32.43;41.67;97689.34;5037380;28;20078;-66
2022/04/09 12:38:41;;;;;;;28.95;10.70;;;;;;;32.36;41.28;97690.41;5052971;28;20063;-68
2022/04/09 12:41:46;;;;;;;28.73;11.02;;;;;;;32.26;40.78;97688.97;5052806;28;20102;-67
2022/04/09 12:44:32;;;;;;;34.03;14.25;;;;;;;32.18;41.72;97693.72;5058854;28;20095;-66
2022/04/09 12:47:28;;;;;;;34.63;12.90;;;;;;;32.05;42.75;97702.53;5054274;28;20060;-68
2022/04/09 12:50:04;;;;;;;41.42;14.05;;;;;;;31.97;40.66;97697.41;5032042;28;20055;-66
2022/04/09 12:52:54;;;;;;;28.02;13.02;;;;;;;31.87;44.44;97697.81;5045723;28;20063;-62
2022/04/09 12:55:39;;;;;;;36.58;12.45;;;;;;;31.86;39.60;97704.16;5043817;28;20052;-68